Harrisonburg, VA

3:03 PM EDT on May 05, 2015 (GMT -0400)
Charlottesville-Albemarle | | Change Station
CLOSE
Current Station
Airport
Location: Charlottesville,
Elevation: 640 ft
Nearby Weather Stations

Elev 640 ft 38.14 °N, 78.46 °W | Updated 1 hour ago

Mostly Cloudy
Mostly Cloudy
84 °F
Feels Like 84 °F
N
0
Wind Variable Wind from North

Today
High -- | Low -- °F
--% Chance of Precip.
Yesterday
High -- | Low -- °F
Precip. -- in
6:14 AM 8:10 PM
Full, 97% visible
Pressure 30.21 in
Visibility 10.0 miles
Clouds Clear
Dew Point 51 °F
Humidity 32%
Rainfall 0.00 in
Snow Depth Not available.
UV 11 out of 12
Pollen 10.00 out of 12
Air Quality Not available.
Flu Activity Sporadic
METAR KCHO 051753Z 00000KT 10SM CLR 29/11 A3023 RMK AO2 SLP229 T02890106 10289 20167 58016

More Conditions Fewer Conditions

Pressure 30.21 in
Visibility 10.0 miles
Clouds Clear
Dew Point 51 °F
Humidity 32%
Rainfall 0.00 in
Snow Depth Not available.
UV 11 out of 12
Pollen 10.00 out of 12
Air Quality Not available.
Flu Activity Sporadic
METAR KCHO 051753Z 00000KT 10SM CLR 29/11 A3023 RMK AO2 SLP229 T02890106 10289 20167 58016

More Conditions Fewer Conditions

10-Day Weather Forecast

Almanac

Astronomy

May. 05, 2015 Rise Set
Actual Time
Civil Twilight
Nautical Twilight
Astronomical Twilight
Moon
Length of Visible Light
Length of Day
Tomorrow will be .
, % of the Moon is Illuminated

Today's Extremes

State Highs State Lows

Community

WunderPhotos

Upload Photos

1,818,956 photos uploaded!

WunderBlogs® & News

Nearby

Air Quality

  Air Quality AQ Index Pollutant
Not available.

Snow Depth

Station Depth Elevation

Earthquake Activity

City Distance Mag. Time & Date
Minimum magnitude displayed is 2.5.

Coastal Water Temperatures

Place Temperature

Stations

Nearby Weather Stations

Station Location Temp. Windchill Dew Point Humidity Wind Precip. Elev Updated Type